createdAt,value
2019-04-30T00:01:18.828Z,5.00
2019-04-30T00:04:02.523Z,6.80
2019-04-30T00:06:34.664Z,5.87
2019-04-30T00:09:01.330Z,6.50
2019-04-30T00:11:29.749Z,5.77
2019-04-30T00:13:58.934Z,4.93
2019-04-30T00:16:30.884Z,5.03
2019-04-30T00:19:00.660Z,5.53
2019-04-30T00:21:27.817Z,5.53
2019-04-30T00:24:00.473Z,4.93
2019-04-30T00:26:26.405Z,6.50
2019-04-30T00:28:55.352Z,6.20
2019-04-30T00:31:27.331Z,5.63
2019-04-30T00:33:59.870Z,5.57
2019-04-30T00:36:28.911Z,5.00
2019-04-30T00:38:54.911Z,5.93
2019-04-30T00:41:25.528Z,5.83
2019-04-30T00:43:55.166Z,5.43
2019-04-30T00:46:24.899Z,5.83
2019-04-30T00:48:55.546Z,5.53
2019-04-30T00:51:26.227Z,5.73
2019-04-30T00:53:55.845Z,6.10
2019-04-30T00:56:28.088Z,6.40
2019-04-30T00:58:57.439Z,5.70
2019-04-30T01:01:43.510Z,5.70
2019-04-30T01:04:15.083Z,5.87
2019-04-30T01:06:43.624Z,6.47
2019-04-30T01:09:12.061Z,6.90
2019-04-30T01:11:46.555Z,7.67
2019-04-30T01:14:10.643Z,6.50
2019-04-30T01:16:39.475Z,6.70
2019-04-30T01:19:11.390Z,8.50
2019-04-30T01:21:41.766Z,7.07
2019-04-30T01:24:09.049Z,7.27
2019-04-30T01:26:39.353Z,6.80
2019-04-30T01:29:08.149Z,7.00
2019-04-30T01:31:39.728Z,7.07
2019-04-30T01:34:10.330Z,7.00
2019-04-30T01:36:39.268Z,6.37
2019-04-30T01:39:09.471Z,7.03
2019-04-30T01:41:38.673Z,7.10
2019-04-30T01:44:11.828Z,8.07
2019-04-30T01:46:39.088Z,7.93
2019-04-30T01:49:08.595Z,7.90
2019-04-30T01:51:38.669Z,9.20
2019-04-30T01:54:09.161Z,8.97
2019-04-30T01:56:45.163Z,7.80
2019-04-30T01:59:15.217Z,9.50
2019-04-30T02:01:48.738Z,8.60
2019-04-30T02:04:19.477Z,8.73
2019-04-30T02:06:49.327Z,9.20
2019-04-30T02:09:18.921Z,8.83
2019-04-30T02:11:48.830Z,8.13
2019-04-30T02:14:18.976Z,9.23
2019-04-30T02:16:49.318Z,9.83
2019-04-30T02:19:18.859Z,9.77
2019-04-30T02:21:48.672Z,9.83
2019-04-30T02:24:19.223Z,9.93
2019-04-30T02:26:48.521Z,8.77
2019-04-30T02:29:19.004Z,10.80
2019-04-30T02:31:50.104Z,12.23
2019-04-30T02:34:22.316Z,11.00
2019-04-30T02:36:52.823Z,10.27
2019-04-30T02:39:21.281Z,11.53
2019-04-30T02:41:50.829Z,10.67
2019-04-30T02:44:20.649Z,10.60
2019-04-30T02:46:51.867Z,12.47
2019-04-30T02:49:22.334Z,10.67
2019-04-30T02:51:52.924Z,11.30
2019-04-30T02:54:24.842Z,11.63
2019-04-30T02:56:55.014Z,11.00
2019-04-30T02:59:23.456Z,10.80
2019-04-30T03:01:51.979Z,11.93
2019-04-30T03:04:20.420Z,11.53
2019-04-30T03:06:50.244Z,11.13
2019-04-30T03:09:20.158Z,12.70
2019-04-30T03:11:50.002Z,11.77
2019-04-30T03:14:20.222Z,12.30
2019-04-30T03:16:53.139Z,12.43
2019-04-30T03:19:25.186Z,11.93
2019-04-30T03:22:00.180Z,13.03
2019-04-30T03:24:29.556Z,14.77
2019-04-30T03:26:59.429Z,15.10
2019-04-30T03:29:30.239Z,15.03
2019-04-30T03:32:02.394Z,16.17
2019-04-30T03:34:32.740Z,15.60
2019-04-30T03:37:01.732Z,16.60
2019-04-30T03:39:29.748Z,17.23
2019-04-30T03:41:59.739Z,16.40
2019-04-30T03:44:31.633Z,17.13
2019-04-30T03:46:59.274Z,17.97
2019-04-30T03:49:29.924Z,18.60
2019-04-30T03:51:59.961Z,17.57
2019-04-30T03:54:29.274Z,19.07
2019-04-30T03:57:00.628Z,19.50
2019-04-30T03:59:30.299Z,18.50
2019-04-30T04:02:03.425Z,17.73
2019-04-30T04:04:52.607Z,19.10
2019-04-30T04:07:39.468Z,19.53
2019-04-30T04:10:10.295Z,19.57
2019-04-30T04:12:39.506Z,19.97
2019-04-30T04:15:10.468Z,17.87
2019-04-30T04:17:39.724Z,18.33
2019-04-30T04:20:10.710Z,16.87
2019-04-30T04:22:40.273Z,17.43
2019-04-30T04:25:13.056Z,18.00
2019-04-30T04:27:39.806Z,16.00
2019-04-30T04:30:10.686Z,17.33
2019-04-30T04:32:40.695Z,17.90
2019-04-30T04:35:12.780Z,17.40
2019-04-30T04:37:39.907Z,17.30
2019-04-30T04:40:09.386Z,18.57
2019-04-30T04:42:39.530Z,18.30
2019-04-30T04:45:09.889Z,19.50
2019-04-30T04:47:40.237Z,17.97
2019-04-30T04:50:10.222Z,18.50
2019-04-30T04:52:39.650Z,19.50
2019-04-30T04:55:10.006Z,19.30
2019-04-30T04:57:40.043Z,16.10
2019-04-30T05:00:10.932Z,19.07
2019-04-30T05:02:51.339Z,19.93
2019-04-30T05:05:19.818Z,20.20
2019-04-30T05:07:48.693Z,18.47
2019-04-30T05:10:19.053Z,21.50
2019-04-30T05:12:50.544Z,21.17
2019-04-30T05:15:19.448Z,21.63
2019-04-30T05:17:49.484Z,19.70
2019-04-30T05:20:19.452Z,19.87
2019-04-30T05:22:48.912Z,20.00
2019-04-30T05:25:18.656Z,22.10
2019-04-30T05:27:48.820Z,21.90
2019-04-30T05:30:19.885Z,21.90
2019-04-30T05:32:50.458Z,23.90
2019-04-30T05:35:18.687Z,22.67
2019-04-30T05:37:49.361Z,24.73
2019-04-30T05:40:18.872Z,23.93
2019-04-30T05:42:49.478Z,23.70
2019-04-30T05:45:19.275Z,25.40
2019-04-30T05:47:50.304Z,26.00
2019-04-30T05:50:20.005Z,25.83
2019-04-30T05:52:49.360Z,25.83
2019-04-30T05:55:19.821Z,26.37
2019-04-30T05:57:55.776Z,27.83
2019-04-30T06:00:19.267Z,28.17
2019-04-30T06:02:49.725Z,27.97
2019-04-30T06:05:18.789Z,26.73
2019-04-30T06:07:51.624Z,26.87
2019-04-30T06:10:25.721Z,27.23
2019-04-30T06:13:01.898Z,27.03
2019-04-30T06:15:32.021Z,26.60
2019-04-30T06:18:10.741Z,30.00
2019-04-30T06:20:32.579Z,30.23
2019-04-30T06:23:01.277Z,30.00
2019-04-30T06:25:37.190Z,26.73
2019-04-30T06:28:00.737Z,26.37
2019-04-30T06:30:30.118Z,27.50
2019-04-30T06:32:59.681Z,30.57
2019-04-30T06:35:29.401Z,30.73
2019-04-30T06:37:59.136Z,30.50
2019-04-30T06:40:29.282Z,31.90
2019-04-30T06:43:00.657Z,31.37
2019-04-30T06:45:30.441Z,33.83
2019-04-30T06:48:00.418Z,29.90
2019-04-30T06:50:29.310Z,30.43
2019-04-30T06:52:59.421Z,32.70
2019-04-30T06:55:30.691Z,31.20
2019-04-30T06:58:11.460Z,33.90
2019-04-30T07:00:40.023Z,28.17
2019-04-30T07:03:09.599Z,28.40
2019-04-30T07:05:39.061Z,31.57
2019-04-30T07:08:36.417Z,30.70
2019-04-30T07:11:13.752Z,30.07
2019-04-30T07:13:43.459Z,27.03
2019-04-30T07:16:12.613Z,26.13
2019-04-30T07:18:41.083Z,27.50
2019-04-30T07:21:09.511Z,25.27
2019-04-30T07:23:38.697Z,24.67
2019-04-30T07:26:09.004Z,23.40
2019-04-30T07:28:44.758Z,24.27
2019-04-30T07:31:14.101Z,24.50
2019-04-30T07:33:39.643Z,24.80
2019-04-30T07:36:09.668Z,25.67
2019-04-30T07:38:45.741Z,24.43
2019-04-30T07:41:09.531Z,22.80
2019-04-30T07:43:39.239Z,24.50
2019-04-30T07:46:09.380Z,21.07
2019-04-30T07:48:40.252Z,22.00
2019-04-30T07:51:10.158Z,21.80
2019-04-30T07:53:40.486Z,22.80
2019-04-30T07:56:24.346Z,18.23
2019-04-30T07:58:39.409Z,18.80
2019-04-30T08:01:10.462Z,17.77
2019-04-30T08:03:42.810Z,17.43
2019-04-30T08:06:12.108Z,16.23
2019-04-30T08:08:41.164Z,15.80
2019-04-30T08:11:22.752Z,14.37
2019-04-30T08:13:41.161Z,17.07
2019-04-30T08:16:10.383Z,15.67
2019-04-30T08:18:39.262Z,13.53
2019-04-30T08:21:09.436Z,14.23
2019-04-30T08:23:39.783Z,14.33
2019-04-30T08:26:08.912Z,14.30
2019-04-30T08:28:38.633Z,15.20
2019-04-30T08:31:08.950Z,13.77
2019-04-30T08:33:37.629Z,15.43
2019-04-30T08:36:06.078Z,14.07
2019-04-30T08:38:34.717Z,15.40
2019-04-30T08:41:03.161Z,16.80
2019-04-30T08:43:31.597Z,15.27
2019-04-30T08:46:00.046Z,14.90
2019-04-30T08:48:43.667Z,15.40
2019-04-30T08:50:59.311Z,16.20
2019-04-30T08:53:32.443Z,14.87
2019-04-30T08:55:59.126Z,15.43
2019-04-30T08:58:29.264Z,15.23
2019-04-30T09:00:58.791Z,15.73
2019-04-30T09:03:29.498Z,16.30
2019-04-30T09:05:59.148Z,16.90
2019-04-30T09:08:29.319Z,15.87
2019-04-30T09:10:59.529Z,16.70
2019-04-30T09:13:28.711Z,17.00
2019-04-30T09:15:59.307Z,15.33
2019-04-30T09:18:29.203Z,15.40
2019-04-30T09:21:05.493Z,15.27
2019-04-30T09:23:42.803Z,14.50
2019-04-30T09:25:58.620Z,16.00
2019-04-30T09:28:29.358Z,15.10
2019-04-30T09:30:58.621Z,15.67
2019-04-30T09:33:29.271Z,15.40
2019-04-30T09:35:59.419Z,14.80
2019-04-30T09:38:29.006Z,16.67
2019-04-30T09:40:59.353Z,16.17
2019-04-30T09:43:28.610Z,16.07
2019-04-30T09:45:59.181Z,17.70
2019-04-30T09:48:30.374Z,17.20
2019-04-30T09:51:00.359Z,18.30
2019-04-30T09:53:29.749Z,17.40
2019-04-30T09:55:59.598Z,16.80
2019-04-30T09:58:29.931Z,17.03
2019-04-30T10:00:59.364Z,18.60
2019-04-30T10:03:30.228Z,18.93
2019-04-30T10:05:59.085Z,18.43
2019-04-30T10:08:30.335Z,17.27
2019-04-30T10:11:02.720Z,19.40
2019-04-30T10:13:31.162Z,17.60
2019-04-30T10:16:04.209Z,20.50
2019-04-30T10:18:32.680Z,20.10
2019-04-30T10:21:01.169Z,19.40
2019-04-30T10:23:30.337Z,20.70
2019-04-30T10:25:59.514Z,19.20
2019-04-30T10:28:28.509Z,20.33
2019-04-30T10:30:56.933Z,18.70
2019-04-30T10:33:25.381Z,22.00
2019-04-30T10:35:53.816Z,19.63
2019-04-30T10:38:22.883Z,21.00
2019-04-30T10:40:51.371Z,20.43
2019-04-30T10:43:19.865Z,17.77
2019-04-30T10:45:48.641Z,19.77
2019-04-30T10:48:17.312Z,19.90
2019-04-30T10:50:45.757Z,19.47
2019-04-30T10:53:15.014Z,21.03
2019-04-30T10:55:43.453Z,19.03
2019-04-30T10:58:11.881Z,20.40
2019-04-30T11:00:43.867Z,19.27
2019-04-30T11:03:19.815Z,21.20
2019-04-30T11:05:42.692Z,19.50
2019-04-30T11:08:11.213Z,21.43
2019-04-30T11:10:40.030Z,19.00
2019-04-30T11:13:08.757Z,20.23
2019-04-30T11:15:39.293Z,17.93
2019-04-30T11:18:07.523Z,20.37
2019-04-30T11:20:36.580Z,19.57
2019-04-30T11:23:14.217Z,19.23
2019-04-30T11:25:37.138Z,20.63
2019-04-30T11:28:06.728Z,19.63
2019-04-30T11:30:36.500Z,21.73
2019-04-30T11:33:05.495Z,21.90
2019-04-30T11:35:35.941Z,20.80
2019-04-30T11:38:04.826Z,20.30
2019-04-30T11:40:39.283Z,21.53
2019-04-30T11:43:05.325Z,22.57
2019-04-30T11:45:51.716Z,22.83
2019-04-30T11:48:20.844Z,20.03
2019-04-30T11:50:51.624Z,21.40
2019-04-30T11:53:25.239Z,24.50
2019-04-30T11:55:50.394Z,24.23
2019-04-30T11:58:21.686Z,22.53
2019-04-30T12:00:49.494Z,23.40
2019-04-30T12:03:19.159Z,22.50
2019-04-30T12:05:49.078Z,22.37
2019-04-30T12:08:22.281Z,21.33
2019-04-30T12:10:52.369Z,23.93
2019-04-30T12:13:28.522Z,22.60
2019-04-30T12:15:58.827Z,23.50
2019-04-30T12:18:27.759Z,24.70
2019-04-30T12:20:56.194Z,23.43
2019-04-30T12:23:24.638Z,24.47
2019-04-30T12:25:53.073Z,24.83
2019-04-30T12:28:21.518Z,24.00
2019-04-30T12:30:49.966Z,22.23
2019-04-30T12:33:19.279Z,22.90
2019-04-30T12:35:51.060Z,24.07
2019-04-30T12:38:19.191Z,23.80
2019-04-30T12:40:48.014Z,25.80
2019-04-30T12:43:16.458Z,23.67
2019-04-30T12:45:44.901Z,25.37
2019-04-30T12:48:15.007Z,24.57
2019-04-30T12:51:01.506Z,27.20
2019-04-30T12:53:34.502Z,27.07
2019-04-30T12:56:26.912Z,26.23
2019-04-30T12:58:51.272Z,25.27
2019-04-30T13:01:19.705Z,27.00
2019-04-30T13:03:56.673Z,26.90
2019-04-30T13:06:18.847Z,25.80
2019-04-30T13:08:51.549Z,26.30
2019-04-30T13:11:20.537Z,27.17
2019-04-30T13:13:50.367Z,28.10
2019-04-30T13:16:19.383Z,27.50
2019-04-30T13:18:49.361Z,28.83
2019-04-30T13:21:18.504Z,29.47
2019-04-30T13:23:47.323Z,29.70
2019-04-30T13:26:15.762Z,27.20
2019-04-30T13:29:02.196Z,31.47
2019-04-30T13:31:30.626Z,29.83
2019-04-30T13:34:01.919Z,32.47
2019-04-30T13:36:30.726Z,32.93
2019-04-30T13:39:15.592Z,30.80
2019-04-30T13:42:00.677Z,33.77
2019-04-30T13:44:30.754Z,28.50
2019-04-30T13:46:59.188Z,31.60
2019-04-30T13:49:30.061Z,34.20
2019-04-30T13:51:57.798Z,31.93
2019-04-30T13:54:26.245Z,35.03
2019-04-30T13:56:54.673Z,32.87
2019-04-30T13:59:23.117Z,33.77
2019-04-30T14:01:51.550Z,31.50
2019-04-30T14:04:27.586Z,33.40
2019-04-30T14:07:06.671Z,33.70
2019-04-30T14:09:35.109Z,34.17
2019-04-30T14:12:03.540Z,32.93
2019-04-30T14:14:31.990Z,32.83
2019-04-30T14:17:01.191Z,32.80
2019-04-30T14:19:29.982Z,34.57
2019-04-30T14:21:59.962Z,33.37
2019-04-30T14:24:28.411Z,32.13
2019-04-30T14:26:58.932Z,30.90
2019-04-30T14:29:29.825Z,34.33
2019-04-30T14:31:58.765Z,30.90
2019-04-30T14:34:28.625Z,31.80
2019-04-30T14:36:59.198Z,31.47
2019-04-30T14:39:29.233Z,33.00
2019-04-30T14:42:00.071Z,33.23
2019-04-30T14:44:32.878Z,31.97
2019-04-30T14:47:03.695Z,32.93
2019-04-30T14:49:43.493Z,30.97
2019-04-30T14:52:13.367Z,32.43
2019-04-30T14:54:50.466Z,31.87
2019-04-30T14:57:37.362Z,31.90
2019-04-30T15:00:14.650Z,32.80
2019-04-30T15:02:50.033Z,31.40
2019-04-30T15:05:19.592Z,32.20
2019-04-30T15:07:48.436Z,30.57
2019-04-30T15:10:17.401Z,33.73
2019-04-30T15:12:45.842Z,32.50
2019-04-30T15:15:15.385Z,31.87
2019-04-30T15:17:43.815Z,33.60
2019-04-30T15:20:13.094Z,32.77
2019-04-30T15:22:43.165Z,31.77
2019-04-30T15:25:11.613Z,30.80
2019-04-30T15:27:45.067Z,31.63
2019-04-30T15:30:11.202Z,33.77
2019-04-30T15:32:41.282Z,30.50
2019-04-30T15:35:09.877Z,32.17
2019-04-30T15:37:39.965Z,32.47
2019-04-30T15:40:09.095Z,34.13
2019-04-30T15:42:39.350Z,30.07
2019-04-30T15:45:09.314Z,32.83
2019-04-30T15:47:38.727Z,32.27
2019-04-30T15:50:09.772Z,32.03
2019-04-30T15:52:38.697Z,33.40
2019-04-30T15:55:09.249Z,33.30
2019-04-30T15:57:59.366Z,32.20
2019-04-30T16:00:31.270Z,32.47
2019-04-30T16:03:01.478Z,31.60
2019-04-30T16:05:31.576Z,31.30
2019-04-30T16:08:01.671Z,30.17
2019-04-30T16:10:31.740Z,32.70
2019-04-30T16:13:01.835Z,33.10
2019-04-30T16:15:30.269Z,32.27
2019-04-30T16:18:00.353Z,31.40
2019-04-30T16:20:30.123Z,31.83
2019-04-30T16:22:59.121Z,32.13
2019-04-30T16:25:27.757Z,30.53
2019-04-30T16:27:56.203Z,31.73
2019-04-30T16:30:25.404Z,31.27
2019-04-30T16:32:53.957Z,32.60
2019-04-30T16:35:22.898Z,31.33
2019-04-30T16:37:53.366Z,31.30
2019-04-30T16:40:22.304Z,30.37
2019-04-30T16:42:50.947Z,30.07
2019-04-30T16:45:20.277Z,31.37
2019-04-30T16:47:48.714Z,32.00
2019-04-30T16:50:18.830Z,31.50
2019-04-30T16:52:49.677Z,34.43
2019-04-30T16:55:17.477Z,32.10
2019-04-30T16:57:45.912Z,31.90
2019-04-30T17:00:16.682Z,33.97
2019-04-30T17:02:46.754Z,35.00
2019-04-30T17:05:23.870Z,33.70
2019-04-30T17:08:02.950Z,32.37
2019-04-30T17:10:39.490Z,35.10
2019-04-30T17:13:09.577Z,35.90
2019-04-30T17:15:39.797Z,33.73
2019-04-30T17:18:12.137Z,35.30
2019-04-30T17:20:41.401Z,38.10
2019-04-30T17:23:09.920Z,36.00
2019-04-30T17:25:38.392Z,35.90
2019-04-30T17:28:08.738Z,34.97
2019-04-30T17:30:39.082Z,39.13
2019-04-30T17:33:09.374Z,38.43
2019-04-30T17:35:38.786Z,35.07
2019-04-30T17:38:07.259Z,39.60
2019-04-30T17:40:35.701Z,35.77
2019-04-30T17:43:04.573Z,38.87
2019-04-30T17:45:35.838Z,39.43
2019-04-30T17:48:04.413Z,40.43
2019-04-30T17:50:32.886Z,38.93
2019-04-30T17:53:01.376Z,38.50
2019-04-30T17:55:49.221Z,39.63
2019-04-30T17:58:20.436Z,38.27
2019-04-30T18:00:49.473Z,38.67
2019-04-30T18:03:18.976Z,40.47
2019-04-30T18:05:49.190Z,38.80
2019-04-30T18:08:17.850Z,33.70
2019-04-30T18:10:46.310Z,37.47
2019-04-30T18:13:14.759Z,33.13
2019-04-30T18:15:44.853Z,36.13
2019-04-30T18:18:24.205Z,34.17
2019-04-30T18:21:06.176Z,36.37
2019-04-30T18:23:36.245Z,34.67
2019-04-30T18:26:08.925Z,32.17
2019-04-30T18:28:37.358Z,34.43
2019-04-30T18:31:08.754Z,34.60
2019-04-30T18:33:37.090Z,32.07
2019-04-30T18:36:05.541Z,32.17
2019-04-30T18:38:35.220Z,32.53
2019-04-30T18:41:03.711Z,33.50
2019-04-30T18:43:32.216Z,35.13
2019-04-30T18:46:00.841Z,34.70
2019-04-30T18:48:29.502Z,40.23
2019-04-30T18:50:58.072Z,33.83
2019-04-30T18:53:28.655Z,36.50
2019-04-30T18:55:59.048Z,38.75
2019-04-30T18:58:39.324Z,33.43
2019-04-30T19:00:59.282Z,34.87
2019-04-30T19:03:29.287Z,36.30
2019-04-30T19:05:59.914Z,35.73
2019-04-30T19:08:29.996Z,34.40
2019-04-30T19:11:12.668Z,34.37
2019-04-30T19:14:00.126Z,35.43
2019-04-30T19:16:46.778Z,35.43
2019-04-30T19:19:19.601Z,37.57
2019-04-30T19:21:48.714Z,36.20
2019-04-30T19:24:17.197Z,35.27
2019-04-30T19:26:45.876Z,37.13
2019-04-30T19:29:14.310Z,36.93
2019-04-30T19:31:42.754Z,34.87
2019-04-30T19:34:11.193Z,38.53
2019-04-30T19:36:40.699Z,34.80
2019-04-30T19:39:09.839Z,34.93
2019-04-30T19:41:38.720Z,36.90
2019-04-30T19:44:07.251Z,34.53
2019-04-30T19:46:35.921Z,36.53
2019-04-30T19:49:04.373Z,36.27
2019-04-30T19:51:32.811Z,31.23
2019-04-30T19:54:01.437Z,34.73
2019-04-30T19:56:32.777Z,34.87
2019-04-30T19:59:05.249Z,33.27
2019-04-30T20:01:30.340Z,36.23
2019-04-30T20:03:58.920Z,35.93
2019-04-30T20:06:28.733Z,33.93
2019-04-30T20:08:58.839Z,32.80
2019-04-30T20:11:27.551Z,35.63
2019-04-30T20:13:58.725Z,37.30
2019-04-30T20:16:27.161Z,34.30
2019-04-30T20:18:55.618Z,38.33
2019-04-30T20:21:28.691Z,37.27
2019-04-30T20:23:55.321Z,34.67
2019-04-30T20:26:23.757Z,32.80
2019-04-30T20:28:52.255Z,39.53
2019-04-30T20:31:20.708Z,35.03
2019-04-30T20:33:49.154Z,37.10
2019-04-30T20:36:19.031Z,40.17
2019-04-30T20:38:55.341Z,38.77
2019-04-30T20:41:25.405Z,40.13
2019-04-30T20:43:53.946Z,39.97
2019-04-30T20:46:31.460Z,37.97
2019-04-30T20:48:52.559Z,40.10
2019-04-30T20:51:21.007Z,43.93
2019-04-30T20:53:49.477Z,42.80
2019-04-30T20:56:19.108Z,46.00
2019-04-30T20:58:55.630Z,39.97
2019-04-30T21:01:19.359Z,43.20
2019-04-30T21:03:48.146Z,40.83
2019-04-30T21:06:16.578Z,41.97
2019-04-30T21:08:46.195Z,39.50
2019-04-30T21:11:14.638Z,44.00
2019-04-30T21:13:43.085Z,44.60
2019-04-30T21:16:12.622Z,37.13
2019-04-30T21:18:41.241Z,44.93
2019-04-30T21:21:09.827Z,45.90
2019-04-30T21:23:39.231Z,58.07
2019-04-30T21:26:09.106Z,55.10
2019-04-30T21:28:39.222Z,59.67
2019-04-30T21:31:25.514Z,58.27
2019-04-30T21:33:58.123Z,52.80
2019-04-30T21:36:28.526Z,59.33
2019-04-30T21:38:58.949Z,54.87
2019-04-30T21:41:29.518Z,57.50
2019-04-30T21:43:57.732Z,47.60
2019-04-30T21:46:26.158Z,53.97
2019-04-30T21:48:54.593Z,53.43
2019-04-30T21:51:23.033Z,52.90
2019-04-30T21:53:51.482Z,51.47
2019-04-30T21:56:19.924Z,49.37
2019-04-30T21:58:48.353Z,52.47
2019-04-30T22:04:06.545Z,50.27
2019-04-30T22:06:34.982Z,48.00
2019-04-30T22:09:04.969Z,48.00
2019-04-30T22:11:33.397Z,48.90
2019-04-30T22:14:01.838Z,47.97
2019-04-30T22:16:30.281Z,50.20
2019-04-30T22:18:59.093Z,47.43
2019-04-30T22:21:28.310Z,46.97
2019-04-30T22:23:57.751Z,46.77
2019-04-30T22:26:26.214Z,44.40
2019-04-30T22:28:54.646Z,42.93
2019-04-30T22:31:23.090Z,43.93
2019-04-30T22:33:51.521Z,43.50
2019-04-30T22:36:24.507Z,42.77
2019-04-30T22:38:54.578Z,42.50
2019-04-30T22:41:30.567Z,44.00
2019-04-30T22:43:58.994Z,43.40
2019-04-30T22:46:29.260Z,42.30
2019-04-30T22:48:57.586Z,35.00
2019-04-30T22:51:26.038Z,42.77
2019-04-30T22:53:54.607Z,37.17
2019-04-30T22:56:23.049Z,40.03
2019-04-30T22:58:51.494Z,37.27
2019-04-30T23:01:30.609Z,42.30
2019-04-30T23:04:03.594Z,36.23
2019-04-30T23:06:32.030Z,36.70
2019-04-30T23:09:00.490Z,38.67
2019-04-30T23:11:28.933Z,38.53
2019-04-30T23:13:57.371Z,36.73
2019-04-30T23:16:25.987Z,36.97
2019-04-30T23:18:54.414Z,36.00
2019-04-30T23:21:23.070Z,38.90
2019-04-30T23:23:51.501Z,40.17
2019-04-30T23:26:19.944Z,38.20
2019-04-30T23:28:48.384Z,39.73
2019-04-30T23:31:16.829Z,36.97
2019-04-30T23:33:45.253Z,36.67
2019-04-30T23:36:13.711Z,37.27
2019-04-30T23:38:42.253Z,34.30
2019-04-30T23:41:10.687Z,33.50
2019-04-30T23:43:39.122Z,37.33
2019-04-30T23:46:07.747Z,36.67
2019-04-30T23:48:36.188Z,32.80
2019-04-30T23:51:05.113Z,34.57
2019-04-30T23:53:33.719Z,36.13
2019-04-30T23:56:02.326Z,34.47
2019-04-30T23:58:30.766Z,32.80
